^^
Meteo Knjazevac Station Historical Data
Daily Summary for November 16, 2021 Units:  Metric    English   Both
Daily Weekly Monthly Yearly Custom
  High: Low: Average:
Temperature: 8.8 °C 0.5 °C 4.7 °C
Dew Point: 6.3 °C 0.4 °C 3.6 °C
Humidity: 99% 83% 93%
Wind Speed: 14.5km/h 0km/h 5.1km/h
Wind Gust: 30.6km/h - -
Wind- - South
Pressure: 1029.3 hPa 1026 hPa -
Precipitation: 0 mm    
Historical Graphs
 
 
Tabular Data for November 16, 2021
Time Temperature Dew Point Pressure Wind Wind Speed Wind Gust Humidity Rainfall Rate (Hourly) solar Conditions
00:00 2.4 °C 2.1 °C 1029 hPa NE 3.2 km/h 8 km/h 98% 0 mm 0 W/m2
00:10 2.2 °C 1.9 °C 1029 hPa East 3.2 km/h 8 km/h 98% 0 mm 0 W/m2
00:20 2.3 °C 2 °C 1029 hPa East 1.6 km/h 6.4 km/h 98% 0 mm 0 W/m2
00:30 2.2 °C 1.9 °C 1029 hPa ENE 1.6 km/h 9.7 km/h 98% 0 mm 0 W/m2
00:40 2.1 °C 1.8 °C 1029 hPa Calm   8 km/h 98% 0 mm 0 W/m2
00:50 2 °C 1.7 °C 1029 hPa ESE 1.6 km/h 8 km/h 98% 0 mm 0 W/m2
01:00 1.9 °C 1.6 °C 1029 hPa SE 4.8 km/h 11.3 km/h 98% 0 mm 0 W/m2
01:10 1.9 °C 1.6 °C 1029 hPa SE 1.6 km/h 11.3 km/h 98% 0 mm 0 W/m2
01:20 1.9 °C 1.8 °C 1029 hPa North 3.2 km/h 4.8 km/h 99% 0 mm 0 W/m2
01:30 1.8 °C 1.7 °C 1029 hPa East 1.6 km/h 6.4 km/h 99% 0 mm 0 W/m2
01:40 1.9 °C 1.8 °C 1029 hPa SE 3.2 km/h 8 km/h 99% 0 mm 0 W/m2
01:50 1.8 °C 1.7 °C 1029 hPa SE 4.8 km/h 11.3 km/h 99% 0 mm 0 W/m2
02:00 1.6 °C 1.3 °C 1029 hPa Calm   9.7 km/h 98% 0 mm 0 W/m2
02:10 1.6 °C 1.4 °C 1029 hPa SE 1.6 km/h 6.4 km/h 99% 0 mm 0 W/m2
02:20 1.5 °C 1.3 °C 1029 hPa South 3.2 km/h 8 km/h 99% 0 mm 0 W/m2
02:30 1.3 °C 1.2 °C 1029.3 hPa South 3.2 km/h 9.7 km/h 99% 0 mm 0 W/m2
02:40 1.2 °C 1.1 °C 1029.3 hPa NNW 1.6 km/h 6.4 km/h 99% 0 mm 0 W/m2
02:50 1.1 °C 0.9 °C 1029.3 hPa West 1.6 km/h 4.8 km/h 99% 0 mm 0 W/m2
03:00 1 °C 0.8 °C 1029.3 hPa SSW 3.2 km/h 6.4 km/h 99% 0 mm 0 W/m2
03:10 0.9 °C 0.8 °C 1029.3 hPa WSW 3.2 km/h 4.8 km/h 99% 0 mm 0 W/m2
03:20 0.8 °C 0.7 °C 1029 hPa Calm   4.8 km/h 99% 0 mm 0 W/m2
03:30 0.7 °C 0.6 °C 1029 hPa Calm   1.6 km/h 99% 0 mm 0 W/m2
03:40 0.6 °C 0.4 °C 1029 hPa WNW 1.6 km/h 3.2 km/h 99% 0 mm 0 W/m2
03:50 0.5 °C 0.4 °C 1029 hPa Calm   3.2 km/h 99% 0 mm 0 W/m2
04:00 0.5 °C 0.4 °C 1029 hPa Calm   4.8 km/h 99% 0 mm 0 W/m2
04:10 0.5 °C 0.4 °C 1028.7 hPa Calm   4.8 km/h 99% 0 mm 0 W/m2
04:20 0.5 °C 0.4 °C 1028.7 hPa NNE 3.2 km/h 6.4 km/h 99% 0 mm 0 W/m2
04:30 0.5 °C 0.4 °C 1028.7 hPa SSE 1.6 km/h 6.4 km/h 99% 0 mm 0 W/m2
04:40 0.6 °C 0.4 °C 1029 hPa North 3.2 km/h 4.8 km/h 99% 0 mm 0 W/m2
04:50 0.6 °C 0.4 °C 1029 hPa WNW 1.6 km/h 3.2 km/h 99% 0 mm 0 W/m2
05:00 0.7 °C 0.6 °C 1029 hPa Calm   4.8 km/h 99% 0 mm 0 W/m2
05:10 0.8 °C 0.7 °C 1029 hPa NE 8 km/h 11.3 km/h 99% 0 mm 0 W/m2
05:20 0.8 °C 0.7 °C 1029 hPa NNW 1.6 km/h 8 km/h 99% 0 mm 0 W/m2
05:30 0.9 °C 0.8 °C 1029 hPa Calm   4.8 km/h 99% 0 mm 0 W/m2
05:40 1 °C 0.8 °C 1029 hPa North 4.8 km/h 9.7 km/h 99% 0 mm 0 W/m2
05:50 1.1 °C 0.9 °C 1029 hPa North 1.6 km/h 3.2 km/h 99% 0 mm 0 W/m2
06:00 1.2 °C 1.1 °C 1029 hPa North 4.8 km/h 8 km/h 99% 0 mm 0 W/m2
06:10 1.2 °C 1.1 °C 1028.7 hPa Calm   8 km/h 99% 0 mm 0 W/m2
06:20 1.2 °C 1.1 °C 1029 hPa NNW 1.6 km/h 4.8 km/h 99% 0 mm 0 W/m2
06:30 1.4 °C 1.3 °C 1028.7 hPa WNW 1.6 km/h 3.2 km/h 99% 0 mm 3 W/m2
06:40 1.5 °C 1.3 °C 1028.7 hPa Calm   4.8 km/h 99% 0 mm 7 W/m2
06:50 1.7 °C 1.6 °C 1028.7 hPa Calm   6.4 km/h 99% 0 mm 15 W/m2
07:00 1.9 °C 1.8 °C 1029 hPa SSE 1.6 km/h 4.8 km/h 99% 0 mm 30 W/m2
07:10 2.2 °C 2.1 °C 1029 hPa North 3.2 km/h 12.9 km/h 99% 0 mm 44 W/m2
07:20 2.7 °C 2.6 °C 1029.3 hPa NE 3.2 km/h 9.7 km/h 99% 0 mm 79 W/m2
07:30 3.4 °C 3.3 °C 1029.3 hPa NE 4.8 km/h 12.9 km/h 99% 0 mm 100 W/m2
07:40 4.4 °C 4.3 °C 1029.3 hPa NE 1.6 km/h 12.9 km/h 99% 0 mm 122 W/m2
07:50 5.4 °C 5.3 °C 1029.3 hPa ENE 4.8 km/h 16.1 km/h 99% 0 mm 144 W/m2
08:00 6.2 °C 5.6 °C 1029.3 hPa NNE 11.3 km/h 16.1 km/h 96% 0 mm 165 W/m2
08:10 7 °C 5.9 °C 1029 hPa NNE 8 km/h 20.9 km/h 93% 0 mm 158 W/m2
08:20 7.3 °C 5.8 °C 1029 hPa North 11.3 km/h 19.3 km/h 90% 0 mm 137 W/m2
08:30 7.5 °C 5.8 °C 1029.3 hPa NNE 8 km/h 20.9 km/h 89% 0 mm 176 W/m2
08:40 7.8 °C 6.1 °C 1029.3 hPa North 9.7 km/h 25.7 km/h 89% 0 mm 192 W/m2
08:50 7.9 °C 6.1 °C 1029.3 hPa North 9.7 km/h 22.5 km/h 88% 0 mm 145 W/m2
09:00 7.7 °C 5.8 °C 1029.3 hPa North 9.7 km/h 24.1 km/h 88% 0 mm 147 W/m2
09:10 7.5 °C 5.8 °C 1029.3 hPa North 11.3 km/h 22.5 km/h 89% 0 mm 164 W/m2
09:20 7.6 °C 5.8 °C 1029.3 hPa North 11.3 km/h 24.1 km/h 88% 0 mm 243 W/m2
09:30 8 °C 6.1 °C 1029.3 hPa North 9.7 km/h 20.9 km/h 88% 0 mm 335 W/m2
09:40 8.4 °C 6.1 °C 1029 hPa North 11.3 km/h 25.7 km/h 85% 0 mm 348 W/m2
09:50 8.8 °C 6.3 °C 1029.3 hPa North 14.5 km/h 24.1 km/h 84% 0 mm 361 W/m2
10:00 8.6 °C 5.9 °C 1029.3 hPa North 11.3 km/h 30.6 km/h 83% 0 mm 203 W/m2
10:10 8.2 °C 5.7 °C 1029 hPa North 12.9 km/h 27.4 km/h 84% 0 mm 220 W/m2
10:20 8.1 °C 5.4 °C 1029 hPa North 4.8 km/h 27.4 km/h 83% 0 mm 184 W/m2
10:30 8 °C 5.4 °C 1029 hPa North 4.8 km/h 27.4 km/h 84% 0 mm 200 W/m2
10:40 8 °C 5.4 °C 1029 hPa North 11.3 km/h 20.9 km/h 84% 0 mm 173 W/m2
10:50 7.9 °C 5.3 °C 1029 hPa North 11.3 km/h 20.9 km/h 84% 0 mm 165 W/m2
11:00 7.8 °C 5.3 °C 1029 hPa North 8 km/h 19.3 km/h 84% 0 mm 180 W/m2
11:10 7.9 °C 5.4 °C 1028.7 hPa North 4.8 km/h 19.3 km/h 84% 0 mm 189 W/m2
11:20 8 °C 5.4 °C 1028.7 hPa North 4.8 km/h 14.5 km/h 84% 0 mm 222 W/m2
11:30 8.1 °C 5.6 °C 1028.7 hPa North 8 km/h 22.5 km/h 84% 0 mm 202 W/m2
11:40 8.1 °C 5.6 °C 1028.3 hPa North 8 km/h 16.1 km/h 84% 0 mm 199 W/m2
11:50 8 °C 5.4 °C 1028.3 hPa North 9.7 km/h 19.3 km/h 84% 0 mm 179 W/m2
12:00 8 °C 5.4 °C 1028.3 hPa North 9.7 km/h 22.5 km/h 84% 0 mm 192 W/m2
12:10 8 °C 5.4 °C 1028.3 hPa North 9.7 km/h 24.1 km/h 84% 0 mm 199 W/m2
12:20 7.9 °C 5.4 °C 1028.3 hPa North 9.7 km/h 19.3 km/h 84% 0 mm 159 W/m2
12:30 7.7 °C 5.3 °C 1028.3 hPa North 11.3 km/h 20.9 km/h 85% 0 mm 137 W/m2
12:40 7.6 °C 5.2 °C 1028 hPa North 11.3 km/h 24.1 km/h 85% 0 mm 152 W/m2
12:50 7.5 °C 5.2 °C 1028 hPa North 9.7 km/h 20.9 km/h 85% 0 mm 206 W/m2
13:00 7.5 °C 5.2 °C 1028 hPa North 11.3 km/h 22.5 km/h 85% 0 mm 158 W/m2
13:10 7.3 °C 4.9 °C 1027.7 hPa North 11.3 km/h 25.7 km/h 85% 0 mm 132 W/m2
13:20 7.2 °C 5 °C 1027.7 hPa North 11.3 km/h 22.5 km/h 86% 0 mm 102 W/m2
13:30 7 °C 4.8 °C 1027.7 hPa North 9.7 km/h 24.1 km/h 86% 0 mm 108 W/m2
13:40 6.9 °C 5.1 °C 1027.7 hPa North 8 km/h 19.3 km/h 88% 0 mm 114 W/m2
13:50 6.8 °C 4.6 °C 1027.7 hPa North 9.7 km/h 20.9 km/h 86% 0 mm 101 W/m2
14:00 6.8 °C 4.9 °C 1027.7 hPa North 8 km/h 20.9 km/h 88% 0 mm 92 W/m2
14:10 6.7 °C 4.8 °C 1027.7 hPa North 9.7 km/h 22.5 km/h 88% 0 mm 70 W/m2
14:20 6.5 °C 4.7 °C 1027.7 hPa North 9.7 km/h 22.5 km/h 88% 0 mm 68 W/m2
14:30 6.5 °C 4.8 °C 1027.3 hPa North 8 km/h 20.9 km/h 89% 0 mm 69 W/m2
14:40 6.4 °C 4.7 °C 1027.3 hPa North 8 km/h 20.9 km/h 89% 0 mm 55 W/m2
14:50 6.3 °C 4.6 °C 1027.3 hPa North 11.3 km/h 24.1 km/h 89% 0 mm 47 W/m2
15:00 6.2 °C 4.5 °C 1027.3 hPa NNW 11.3 km/h 19.3 km/h 89% 0 mm 44 W/m2
15:10 6.1 °C 4.4 °C 1027.3 hPa North 9.7 km/h 19.3 km/h 89% 0 mm 33 W/m2
15:20 6.1 °C 4.4 °C 1027.3 hPa North 9.7 km/h 22.5 km/h 89% 0 mm 24 W/m2
15:30 6.1 °C 4.4 °C 1027.3 hPa North 8 km/h 22.5 km/h 89% 0 mm 14 W/m2
15:40 6.1 °C 4.3 °C 1027.3 hPa North 8 km/h 12.9 km/h 89% 0 mm 10 W/m2
15:50 6 °C 4.3 °C 1027.3 hPa NNW 9.7 km/h 19.3 km/h 89% 0 mm 4 W/m2
16:00 5.9 °C 4.4 °C 1027.3 hPa North 8 km/h 17.7 km/h 90% 0 mm 2 W/m2
16:10 5.9 °C 4.4 °C 1027.3 hPa North 4.8 km/h 19.3 km/h 90% 0 mm 0 W/m2
16:20 5.9 °C 4.4 °C 1027.3 hPa North 9.7 km/h 16.1 km/h 90% 0 mm 0 W/m2
16:30 5.8 °C 4.3 °C 1027.3 hPa North 9.7 km/h 16.1 km/h 90% 0 mm 0 W/m2
16:40 5.8 °C 4.3 °C 1027.3 hPa North 11.3 km/h 19.3 km/h 90% 0 mm 0 W/m2
16:50 5.8 °C 4.3 °C 1027.3 hPa North 8 km/h 17.7 km/h 90% 0 mm 0 W/m2
17:00 5.8 °C 4.3 °C 1027.3 hPa North 9.7 km/h 14.5 km/h 90% 0 mm 0 W/m2
17:10 5.8 °C 4.3 °C 1027.3 hPa North 8 km/h 14.5 km/h 90% 0 mm 0 W/m2
17:20 5.8 °C 4.3 °C 1027.3 hPa North 8 km/h 14.5 km/h 90% 0 mm 0 W/m2
17:30 5.7 °C 4.3 °C 1027.3 hPa North 8 km/h 14.5 km/h 91% 0 mm 0 W/m2
17:40 5.7 °C 4.3 °C 1027.3 hPa North 8 km/h 14.5 km/h 91% 0 mm 0 W/m2
17:50 5.7 °C 4.3 °C 1027.3 hPa North 8 km/h 16.1 km/h 91% 0 mm 0 W/m2
18:00 5.6 °C 4.4 °C 1027.3 hPa North 4.8 km/h 12.9 km/h 92% 0 mm 0 W/m2
18:10 5.6 °C 4.6 °C 1027.3 hPa NNE 3.2 km/h 12.9 km/h 93% 0 mm 0 W/m2
18:20 5.6 °C 4.6 °C 1027.3 hPa NNE 1.6 km/h 9.7 km/h 93% 0 mm 0 W/m2
18:30 5.6 °C 4.6 °C 1027.3 hPa NW 1.6 km/h 4.8 km/h 93% 0 mm 0 W/m2
18:40 5.6 °C 4.6 °C 1027 hPa North 1.6 km/h 11.3 km/h 93% 0 mm 0 W/m2
18:50 5.6 °C 4.6 °C 1027 hPa North 3.2 km/h 11.3 km/h 93% 0 mm 0 W/m2
19:00 5.5 °C 4.4 °C 1027 hPa NNE 3.2 km/h 8 km/h 93% 0 mm 0 W/m2
19:10 5.5 °C 4.4 °C 1027 hPa NNW 1.6 km/h 8 km/h 93% 0 mm 0 W/m2
19:20 5.5 °C 4.4 °C 1026.6 hPa NNW 1.6 km/h 9.7 km/h 93% 0 mm 0 W/m2
19:30 5.6 °C 4.5 °C 1026.6 hPa NNE 3.2 km/h 8 km/h 93% 0 mm 0 W/m2
19:40 5.5 °C 4.4 °C 1026.6 hPa NW 1.6 km/h 9.7 km/h 93% 0 mm 0 W/m2
19:50 5.5 °C 4.4 °C 1026.6 hPa Calm   4.8 km/h 93% 0 mm 0 W/m2
20:00 5.5 °C 4.4 °C 1026.6 hPa SSW 1.6 km/h 3.2 km/h 93% 0 mm 0 W/m2
20:10 5.5 °C 4.4 °C 1026.6 hPa West 1.6 km/h 3.2 km/h 93% 0 mm 0 W/m2
21:20 5.4 °C 4.3 °C 1026.6 hPa Calm   3.2 km/h 93% 0 mm 0 W/m2
21:30 5.4 °C 4.3 °C 1026.6 hPa NNW 1.6 km/h 4.8 km/h 93% 0 mm 0 W/m2
21:40 5.3 °C 4.3 °C 1026.6 hPa West 3.2 km/h 4.8 km/h 93% 0 mm 0 W/m2
21:50 5.2 °C 4.2 °C 1026.6 hPa West 1.6 km/h 6.4 km/h 93% 0 mm 0 W/m2
22:00 5.1 °C 4.1 °C 1026.6 hPa Calm   3.2 km/h 93% 0 mm 0 W/m2
22:10 5 °C 3.9 °C 1026.6 hPa Calm   3.2 km/h 93% 0 mm 0 W/m2
22:20 4.9 °C 3.9 °C 1026.6 hPa Calm   4.8 km/h 93% 0 mm 0 W/m2
22:30 4.7 °C 3.7 °C 1026.6 hPa Calm   4.8 km/h 93% 0 mm 0 W/m2
22:40 4.5 °C 3.4 °C 1026.6 hPa West 1.6 km/h 3.2 km/h 93% 0 mm 0 W/m2
22:50 4.3 °C 3.4 °C 1026.6 hPa West 1.6 km/h 4.8 km/h 94% 0 mm 0 W/m2
23:00 4.2 °C 3.3 °C 1026.3 hPa West 1.6 km/h 3.2 km/h 94% 0 mm 0 W/m2
23:10 4.2 °C 3.3 °C 1026.3 hPa Calm   3.2 km/h 94% 0 mm 0 W/m2
23:20 4 °C 3.1 °C 1026.3 hPa Calm   4.8 km/h 94% 0 mm 0 W/m2
23:30 3.9 °C 3.1 °C 1026.3 hPa SSW 1.6 km/h 3.2 km/h 94% 0 mm 0 W/m2
23:40 3.9 °C 3.2 °C 1026 hPa West 1.6 km/h 3.2 km/h 95% 0 mm 0 W/m2
23:50 3.8 °C 3.1 °C 1026 hPa Calm   3.2 km/h 95% 0 mm 0 W/m2
Knjazevac, Serbia
Compliments of Weather Underground - 2 mb